createdAt,value
2023-05-20T00:02:27.785Z,25.00
2023-05-20T00:04:55.988Z,23.10
2023-05-20T00:07:23.973Z,25.10
2023-05-20T00:09:51.783Z,24.10
2023-05-20T00:12:19.812Z,22.60
2023-05-20T00:14:47.640Z,21.60
2023-05-20T00:17:15.453Z,24.00
2023-05-20T00:19:43.401Z,27.40
2023-05-20T00:22:11.378Z,19.60
2023-05-20T00:24:39.154Z,22.40
2023-05-20T00:27:06.944Z,21.60
2023-05-20T00:29:35.058Z,22.10
2023-05-20T00:32:02.897Z,20.60
2023-05-20T00:34:30.754Z,20.50
2023-05-20T00:36:59.139Z,21.50
2023-05-20T00:39:27.219Z,22.20
2023-05-20T00:41:55.090Z,23.60
2023-05-20T00:44:24.783Z,21.90
2023-05-20T00:46:53.496Z,21.50
2023-05-20T00:49:22.800Z,18.70
2023-05-20T00:51:50.741Z,21.30
2023-05-20T00:54:19.294Z,20.10
2023-05-20T00:56:47.755Z,23.30
2023-05-20T00:59:16.459Z,22.70
2023-05-20T01:01:44.774Z,22.60
2023-05-20T01:04:12.853Z,20.70
2023-05-20T01:06:40.693Z,24.00
2023-05-20T01:09:08.594Z,22.70
2023-05-20T01:11:49.017Z,21.80
2023-05-20T01:14:17.944Z,21.60
2023-05-20T01:16:48.269Z,22.40
2023-05-20T01:19:36.515Z,19.80
2023-05-20T01:22:06.984Z,18.70
2023-05-20T01:24:34.762Z,20.50
2023-05-20T01:27:02.930Z,25.30
2023-05-20T01:29:32.792Z,30.20
2023-05-20T01:32:01.820Z,28.40
2023-05-20T01:34:30.296Z,25.70
2023-05-20T01:36:58.168Z,23.30
2023-05-20T01:39:26.378Z,24.00
2023-05-20T01:41:54.780Z,23.20
2023-05-20T01:44:22.729Z,24.90
2023-05-20T01:46:51.169Z,21.10
2023-05-20T01:49:19.031Z,22.10
2023-05-20T01:51:46.820Z,22.80
2023-05-20T01:54:14.783Z,22.80
2023-05-20T01:56:42.552Z,24.80
2023-05-20T01:59:10.325Z,27.30
2023-05-20T02:01:38.223Z,26.40
2023-05-20T02:04:06.115Z,28.10
2023-05-20T02:06:34.190Z,24.70
2023-05-20T02:09:02.034Z,25.90
2023-05-20T02:11:29.831Z,27.20
2023-05-20T02:13:57.629Z,24.20
2023-05-20T02:16:26.154Z,28.00
2023-05-20T02:18:54.083Z,27.30
2023-05-20T02:21:22.343Z,27.70
2023-05-20T02:23:50.205Z,27.90
2023-05-20T02:26:18.046Z,27.00
2023-05-20T02:28:47.015Z,31.10
2023-05-20T02:31:15.060Z,30.10
2023-05-20T02:33:42.915Z,28.40
2023-05-20T02:36:10.876Z,28.10
2023-05-20T02:38:38.834Z,27.40
2023-05-20T02:41:06.653Z,27.30
2023-05-20T02:43:36.605Z,32.60
2023-05-20T02:46:04.596Z,32.10
2023-05-20T02:48:34.057Z,32.60
2023-05-20T02:51:01.906Z,29.60
2023-05-20T02:53:29.754Z,32.50
2023-05-20T02:55:57.994Z,26.70
2023-05-20T02:58:27.796Z,29.00
2023-05-20T03:00:57.694Z,29.20
2023-05-20T03:03:27.331Z,28.80
2023-05-20T03:05:55.227Z,31.70
2023-05-20T03:08:23.553Z,29.00
2023-05-20T03:10:51.806Z,31.20
2023-05-20T03:13:19.737Z,29.40
2023-05-20T03:15:47.633Z,33.60
2023-05-20T03:18:15.484Z,28.20
2023-05-20T03:20:43.360Z,28.90
2023-05-20T03:23:11.844Z,28.00
2023-05-20T03:25:40.720Z,26.60
2023-05-20T03:28:09.586Z,30.00
2023-05-20T03:30:38.317Z,26.20
2023-05-20T03:33:06.233Z,25.80
2023-05-20T03:35:34.762Z,27.60
2023-05-20T03:38:02.991Z,24.10
2023-05-20T03:40:31.100Z,30.10
2023-05-20T03:42:59.691Z,34.10
2023-05-20T03:45:28.092Z,35.50
2023-05-20T03:48:05.387Z,32.30
2023-05-20T03:50:34.829Z,32.30
2023-05-20T03:53:02.861Z,31.20
2023-05-20T03:55:36.418Z,30.40
2023-05-20T03:58:05.060Z,32.00
2023-05-20T04:00:33.563Z,27.60
2023-05-20T04:03:02.261Z,30.20
2023-05-20T04:05:30.207Z,29.30
2023-05-20T04:07:58.648Z,27.00
2023-05-20T04:10:27.782Z,28.60
2023-05-20T04:12:55.652Z,27.30
2023-05-20T04:15:25.273Z,30.30
2023-05-20T04:17:56.034Z,28.30
2023-05-20T04:20:24.462Z,26.60
2023-05-20T04:22:55.368Z,28.30
2023-05-20T04:25:24.015Z,26.80
2023-05-20T04:27:54.285Z,25.50
2023-05-20T04:30:22.337Z,24.90
2023-05-20T04:32:50.989Z,26.90
2023-05-20T04:35:19.200Z,28.60
2023-05-20T04:37:48.130Z,23.30
2023-05-20T04:40:17.217Z,27.30
2023-05-20T04:42:45.568Z,23.00
2023-05-20T04:45:13.711Z,27.10
2023-05-20T04:47:44.580Z,25.30
2023-05-20T04:50:13.657Z,26.90
2023-05-20T04:52:43.710Z,24.10
2023-05-20T04:55:12.941Z,27.60
2023-05-20T04:57:42.434Z,29.70
2023-05-20T05:00:12.616Z,27.80
2023-05-20T05:02:40.779Z,29.90
2023-05-20T05:05:09.038Z,29.20
2023-05-20T05:07:36.981Z,31.00
2023-05-20T05:10:05.337Z,20.10
2023-05-20T05:12:33.246Z,22.50
2023-05-20T05:15:01.086Z,20.00
2023-05-20T05:17:29.382Z,18.20
2023-05-20T05:19:58.471Z,18.90
2023-05-20T05:22:27.723Z,22.50
2023-05-20T05:24:56.475Z,20.40
2023-05-20T05:27:24.596Z,22.20
2023-05-20T05:29:52.454Z,20.20
2023-05-20T05:32:20.845Z,23.10
2023-05-20T05:34:49.164Z,22.90
2023-05-20T05:37:17.026Z,25.90
2023-05-20T05:39:44.969Z,21.40
2023-05-20T05:42:12.850Z,17.80
2023-05-20T05:44:41.367Z,22.00
2023-05-20T05:47:12.033Z,18.00
2023-05-20T05:49:40.139Z,16.30
2023-05-20T05:52:08.422Z,21.40
2023-05-20T05:54:36.622Z,17.00
2023-05-20T05:57:06.495Z,17.00
2023-05-20T05:59:35.561Z,17.40
2023-05-20T06:02:03.796Z,18.70
2023-05-20T06:04:31.947Z,19.30
2023-05-20T06:07:00.944Z,18.70
2023-05-20T06:09:28.959Z,18.50
2023-05-20T06:11:57.268Z,19.80
2023-05-20T06:14:25.412Z,19.20
2023-05-20T06:16:53.413Z,25.00
2023-05-20T06:19:22.106Z,29.50
2023-05-20T06:21:50.100Z,21.50
2023-05-20T06:24:18.993Z,21.90
2023-05-20T06:26:47.376Z,22.20
2023-05-20T06:29:15.425Z,23.40
2023-05-20T06:31:43.662Z,26.10
2023-05-20T06:34:11.714Z,26.60
2023-05-20T06:36:39.828Z,28.00
2023-05-20T06:39:12.558Z,25.20
2023-05-20T06:41:42.023Z,21.90
2023-05-20T06:44:11.319Z,28.00
2023-05-20T06:46:59.593Z,26.70
2023-05-20T06:49:30.621Z,26.30
2023-05-20T06:51:58.579Z,28.70
2023-05-20T06:54:27.081Z,29.40
2023-05-20T06:56:55.430Z,33.80
2023-05-20T06:59:24.293Z,27.20
2023-05-20T07:01:52.224Z,23.20
2023-05-20T07:04:20.718Z,26.80
2023-05-20T07:06:49.477Z,26.30
2023-05-20T07:09:17.298Z,25.10
2023-05-20T07:11:48.954Z,23.30
2023-05-20T07:14:18.029Z,29.70
2023-05-20T07:16:47.378Z,32.00
2023-05-20T07:19:15.639Z,30.40
2023-05-20T07:21:43.856Z,28.60
2023-05-20T07:24:24.895Z,26.10
2023-05-20T07:26:52.820Z,30.20
2023-05-20T07:29:20.798Z,27.90
2023-05-20T07:31:48.852Z,26.00
2023-05-20T07:34:17.653Z,30.10
2023-05-20T07:36:45.861Z,30.40
2023-05-20T07:39:15.832Z,27.20
2023-05-20T07:41:44.343Z,30.30
2023-05-20T07:44:13.356Z,28.40
2023-05-20T07:46:45.382Z,27.70
2023-05-20T07:49:13.865Z,29.90
2023-05-20T07:51:42.159Z,28.00
2023-05-20T07:54:10.313Z,28.90
2023-05-20T07:56:38.377Z,28.00
2023-05-20T07:59:07.945Z,24.90
2023-05-20T13:02:40.120Z,14.60
2023-05-20T13:05:08.916Z,14.50
2023-05-20T13:07:37.442Z,14.30
2023-05-20T13:10:07.125Z,12.30
2023-05-20T13:12:35.222Z,12.10
2023-05-20T13:15:04.364Z,11.30
2023-05-20T13:17:32.583Z,12.10
2023-05-20T13:20:00.434Z,13.60
2023-05-20T13:22:28.291Z,12.80
2023-05-20T13:24:56.316Z,11.80
2023-05-20T13:27:24.250Z,12.40
2023-05-20T13:29:52.159Z,11.10
2023-05-20T13:32:19.953Z,12.00
2023-05-20T13:34:47.783Z,11.70
2023-05-20T13:37:15.704Z,14.40
2023-05-20T13:39:43.683Z,10.50
2023-05-20T13:42:11.488Z,11.10
2023-05-20T13:44:39.436Z,15.20
2023-05-20T13:47:07.427Z,11.40
2023-05-20T13:49:35.614Z,12.00
2023-05-20T13:52:03.788Z,10.90
2023-05-20T13:54:31.664Z,13.60
2023-05-20T13:56:59.551Z,12.00
2023-05-20T13:59:27.686Z,12.90
2023-05-20T14:01:55.529Z,12.50
2023-05-20T14:04:25.983Z,15.70
2023-05-20T14:06:55.103Z,17.60
2023-05-20T14:09:24.025Z,13.50
2023-05-20T14:11:51.863Z,16.70
2023-05-20T14:14:19.644Z,14.00
2023-05-20T14:16:47.523Z,14.10
2023-05-20T14:19:15.528Z,13.50
2023-05-20T14:21:43.662Z,14.20
2023-05-20T14:24:11.664Z,13.00
2023-05-20T14:26:39.481Z,13.80
2023-05-20T14:29:07.621Z,13.30
2023-05-20T14:31:35.608Z,15.00
2023-05-20T14:34:03.551Z,13.40
2023-05-20T14:36:32.203Z,13.50
2023-05-20T14:39:00.060Z,16.80
2023-05-20T14:41:28.031Z,13.10
2023-05-20T14:43:55.869Z,15.40
2023-05-20T14:46:23.840Z,14.90
2023-05-20T14:48:51.676Z,23.60
2023-05-20T14:51:19.478Z,14.30
2023-05-20T14:53:47.316Z,18.10
2023-05-20T14:56:15.156Z,18.80
2023-05-20T14:58:43.079Z,15.00
2023-05-20T15:01:10.915Z,14.10
2023-05-20T15:03:38.859Z,15.10
2023-05-20T15:06:07.182Z,14.60
2023-05-20T15:08:35.164Z,14.70
2023-05-20T15:11:03.143Z,17.40
2023-05-20T15:13:31.044Z,15.00
2023-05-20T15:15:59.134Z,15.60
2023-05-20T15:18:26.979Z,15.90
2023-05-20T15:20:54.888Z,15.40
2023-05-20T15:23:22.697Z,16.20
2023-05-20T15:25:51.193Z,14.10
2023-05-20T15:28:19.900Z,15.20
2023-05-20T15:30:53.073Z,16.70
2023-05-20T15:33:21.565Z,15.60
2023-05-20T15:35:49.456Z,15.60
2023-05-20T15:38:17.651Z,15.20
2023-05-20T15:40:45.468Z,16.30
2023-05-20T15:43:13.256Z,16.20
2023-05-20T15:45:41.536Z,15.20
2023-05-20T15:48:09.400Z,15.40
2023-05-20T15:50:37.975Z,14.60
2023-05-20T15:53:06.676Z,16.10
2023-05-20T15:55:34.816Z,15.30
2023-05-20T15:58:02.643Z,15.70
2023-05-20T16:00:30.935Z,16.60
2023-05-20T16:02:59.184Z,15.90
2023-05-20T16:05:27.271Z,15.40
2023-05-20T16:07:56.983Z,16.50
2023-05-20T16:10:26.080Z,16.90
2023-05-20T16:12:54.021Z,15.50
2023-05-20T16:15:22.325Z,15.90
2023-05-20T16:17:50.310Z,16.20
2023-05-20T16:20:18.381Z,15.60
2023-05-20T16:22:46.318Z,15.60
2023-05-20T16:25:14.374Z,17.30
2023-05-20T16:27:42.400Z,18.80
2023-05-20T16:30:12.169Z,17.60
2023-05-20T16:32:40.960Z,18.10
2023-05-20T16:35:09.140Z,17.40
2023-05-20T16:37:37.025Z,26.90
2023-05-20T16:40:07.297Z,21.10
2023-05-20T16:42:35.707Z,18.20
2023-05-20T16:45:03.650Z,22.60
2023-05-20T16:47:32.964Z,22.50
2023-05-20T16:50:00.968Z,26.70
2023-05-20T16:52:29.235Z,30.80
2023-05-20T16:55:02.174Z,23.50
2023-05-20T16:57:30.667Z,21.40
2023-05-20T16:59:58.585Z,18.40
2023-05-20T17:02:26.668Z,18.60
2023-05-20T17:04:54.758Z,17.40
2023-05-20T17:07:22.554Z,17.30
2023-05-20T17:09:50.421Z,16.90
2023-05-20T17:12:19.413Z,17.80
2023-05-20T17:14:47.178Z,20.00
2023-05-20T17:17:15.370Z,17.70
2023-05-20T17:19:45.000Z,18.60
2023-05-20T17:22:12.899Z,17.50
2023-05-20T17:24:41.062Z,17.90
2023-05-20T17:27:08.925Z,17.20
2023-05-20T17:29:36.837Z,18.50
2023-05-20T17:32:06.321Z,17.60
2023-05-20T17:34:34.143Z,17.40
2023-05-20T17:37:02.069Z,22.10
2023-05-20T17:39:29.877Z,18.90
2023-05-20T17:41:57.638Z,18.20
2023-05-20T17:44:25.653Z,18.90
2023-05-20T17:46:53.426Z,17.80
2023-05-20T17:49:21.328Z,19.80
2023-05-20T17:51:49.292Z,21.90
2023-05-20T17:54:17.129Z,21.00
2023-05-20T17:56:47.613Z,21.60
2023-05-20T17:59:15.667Z,19.50
2023-05-20T18:01:44.834Z,18.40
2023-05-20T18:04:12.992Z,20.90
2023-05-20T18:06:48.450Z,20.40
2023-05-20T18:09:16.701Z,20.10
2023-05-20T18:11:45.617Z,20.20
2023-05-20T18:14:13.742Z,20.30
2023-05-20T18:16:43.354Z,22.90
2023-05-20T18:19:11.859Z,20.80
2023-05-20T18:21:39.687Z,25.80
2023-05-20T18:24:07.857Z,25.00
2023-05-20T18:26:35.940Z,21.70
2023-05-20T18:29:03.830Z,23.40
2023-05-20T18:31:31.643Z,22.30
2023-05-20T18:33:59.473Z,26.90
2023-05-20T18:36:27.659Z,24.80
2023-05-20T18:38:55.648Z,28.60
2023-05-20T18:41:27.200Z,31.00
2023-05-20T18:44:05.635Z,29.50
2023-05-20T18:46:34.257Z,28.60
2023-05-20T18:49:02.147Z,29.60
2023-05-20T18:51:33.218Z,31.40
2023-05-20T18:54:01.847Z,27.40
2023-05-20T18:56:29.914Z,26.90
2023-05-20T18:58:58.166Z,29.10
2023-05-20T19:01:26.221Z,26.00
2023-05-20T19:03:54.472Z,27.50
2023-05-20T19:06:24.105Z,32.10
2023-05-20T19:08:51.932Z,31.30
2023-05-20T19:11:20.125Z,28.90
2023-05-20T19:13:47.999Z,33.20
2023-05-20T19:16:15.970Z,34.50
2023-05-20T19:18:44.105Z,32.20
2023-05-20T19:21:13.224Z,32.30
2023-05-20T19:23:40.998Z,35.20
2023-05-20T19:26:09.358Z,35.90
2023-05-20T19:28:38.067Z,35.60
2023-05-20T19:31:07.240Z,34.50
2023-05-20T19:33:37.177Z,32.00
2023-05-20T19:36:05.983Z,31.90
2023-05-20T19:38:33.825Z,33.60
2023-05-20T19:41:01.704Z,33.10
2023-05-20T19:43:30.518Z,34.50
2023-05-20T19:45:59.809Z,36.90
2023-05-20T19:48:27.718Z,35.30
2023-05-20T19:50:55.620Z,34.40
2023-05-20T19:53:23.871Z,32.70
2023-05-20T19:55:53.329Z,36.90
2023-05-20T19:58:22.396Z,37.30
2023-05-20T20:00:50.584Z,38.00
2023-05-20T20:03:18.971Z,36.40
2023-05-20T20:05:46.838Z,36.30
2023-05-20T20:08:14.725Z,40.00
2023-05-20T20:10:42.586Z,39.20
2023-05-20T20:13:10.478Z,41.20
2023-05-20T20:15:38.874Z,35.90
2023-05-20T20:18:07.156Z,41.50
2023-05-20T20:20:40.499Z,38.20
2023-05-20T20:23:09.436Z,40.10
2023-05-20T20:25:38.867Z,34.80
2023-05-20T20:28:07.890Z,34.90
2023-05-20T20:30:36.225Z,35.40
2023-05-20T20:33:09.588Z,34.90
2023-05-20T20:35:38.261Z,34.60
2023-05-20T20:38:08.432Z,32.30
2023-05-20T20:40:41.887Z,37.10
2023-05-20T20:43:11.168Z,36.90
2023-05-20T20:45:39.075Z,37.50
2023-05-20T20:48:08.375Z,40.90
2023-05-20T20:50:36.806Z,40.80
2023-05-20T20:53:04.746Z,41.60
2023-05-20T20:55:32.643Z,36.90
2023-05-20T20:58:03.460Z,33.30
2023-05-20T21:00:33.813Z,37.00
2023-05-20T21:03:01.983Z,37.90
2023-05-20T21:05:31.194Z,35.90
2023-05-20T21:07:59.649Z,38.00
2023-05-20T21:10:29.184Z,37.70
2023-05-20T21:12:57.689Z,40.80
2023-05-20T21:15:26.056Z,42.20
2023-05-20T21:17:54.111Z,40.90
2023-05-20T21:20:22.147Z,40.80
2023-05-20T21:22:50.012Z,37.00
2023-05-20T21:25:17.991Z,33.90
2023-05-20T21:27:46.077Z,38.90
2023-05-20T21:30:15.916Z,32.00
2023-05-20T21:32:43.946Z,35.00
2023-05-20T21:35:11.841Z,34.20
2023-05-20T21:37:39.973Z,36.50
2023-05-20T21:40:08.454Z,33.40
2023-05-20T21:42:36.288Z,37.60
2023-05-20T21:45:05.145Z,37.70
2023-05-20T21:47:33.007Z,34.60
2023-05-20T21:50:01.096Z,38.10
2023-05-20T21:52:29.631Z,37.70
2023-05-20T21:54:57.435Z,37.40
2023-05-20T21:57:25.478Z,41.10
2023-05-20T21:59:53.269Z,40.30
2023-05-20T22:02:21.186Z,39.50
2023-05-20T22:04:49.281Z,34.20
2023-05-20T22:07:17.174Z,39.10
2023-05-20T22:09:45.192Z,38.00
2023-05-20T22:12:15.574Z,34.40
2023-05-20T22:14:43.511Z,41.10
2023-05-20T22:17:11.335Z,38.10
2023-05-20T22:19:40.228Z,38.70
2023-05-20T22:22:08.140Z,40.60
2023-05-20T22:24:36.240Z,40.60
2023-05-20T22:27:04.595Z,39.10
2023-05-20T22:29:32.734Z,39.40
2023-05-20T22:32:00.794Z,41.30
2023-05-20T22:34:28.752Z,42.90
2023-05-20T22:36:56.581Z,38.10
2023-05-20T22:39:24.402Z,41.10
2023-05-20T22:41:52.629Z,41.20
2023-05-20T22:44:21.751Z,36.80
2023-05-20T22:46:49.550Z,39.60
2023-05-20T22:49:18.788Z,38.70
2023-05-20T22:51:46.559Z,37.80
2023-05-20T22:54:14.360Z,40.40
2023-05-20T22:56:42.518Z,36.40
2023-05-20T22:59:10.875Z,37.90
2023-05-20T23:01:38.846Z,37.70
2023-05-20T23:04:06.776Z,38.50
2023-05-20T23:06:38.069Z,36.10
2023-05-20T23:09:06.605Z,36.20
2023-05-20T23:11:34.707Z,37.60
2023-05-20T23:14:04.058Z,35.90
2023-05-20T23:16:32.020Z,38.90
2023-05-20T23:18:59.838Z,39.60
2023-05-20T23:21:27.689Z,38.00
2023-05-20T23:23:55.594Z,39.00
2023-05-20T23:26:24.099Z,41.00
2023-05-20T23:28:51.962Z,36.80
2023-05-20T23:31:20.481Z,40.90
2023-05-20T23:33:48.865Z,38.70
2023-05-20T23:36:17.264Z,37.40
2023-05-20T23:38:45.078Z,37.20
2023-05-20T23:41:12.943Z,36.90
2023-05-20T23:43:42.849Z,34.80
2023-05-20T23:46:10.908Z,32.60
2023-05-20T23:48:38.701Z,35.70
2023-05-20T23:51:07.155Z,27.10
2023-05-20T23:53:34.951Z,24.60
2023-05-20T23:56:02.893Z,25.30
2023-05-20T23:58:33.485Z,24.60
